Time;durP1;ratioP1;P1;durP2;ratioP2;P2;SDS_P1;SDS_P2;PMS_P1;PMS_P2;Temp;Humidity;BMP_temperature;BMP_pressure;BME280_temperature;BME280_humidity;BME280_pressure;Samples;Min_cycle;Max_cycle;Signal;HPM_P1;HPM_P2
2021/08/24 00:02:08;;;;;;;9.52;8.02;;;;;;;19.49;100.00;100294.25;5128411;27;20034;-64
2021/08/24 00:04:33;;;;;;;10.52;8.07;;;;;;;19.49;100.00;100299.69;5127434;27;20084;-64
2021/08/24 00:06:59;;;;;;;10.65;8.30;;;;;;;19.51;100.00;100300.31;5128062;27;20080;-64
2021/08/24 00:09:24;;;;;;;14.27;8.93;;;;;;;19.50;100.00;100304.09;5126594;28;20034;-64
2021/08/24 00:11:49;;;;;;;13.82;9.20;;;;;;;19.49;100.00;100302.41;5128113;27;20031;-64
2021/08/24 00:14:15;;;;;;;11.10;8.05;;;;;;;19.50;100.00;100325.00;5127645;27;20055;-64
2021/08/24 00:16:41;;;;;;;11.85;8.88;;;;;;;19.50;100.00;100344.91;5127694;27;20379;-64
2021/08/24 00:19:09;;;;;;;17.67;8.85;;;;;;;19.46;100.00;100346.31;5128397;27;20054;-64
2021/08/24 00:21:35;;;;;;;9.68;8.68;;;;;;;19.44;100.00;100359.25;5127160;27;20109;-64
2021/08/24 00:24:01;;;;;;;13.88;9.00;;;;;;;19.42;100.00;100355.06;5107717;28;20028;-64
2021/08/24 00:26:27;;;;;;;10.65;8.68;;;;;;;19.37;100.00;100352.91;5108211;28;20020;-64
2021/08/24 00:28:52;;;;;;;13.32;9.35;;;;;;;19.21;100.00;100333.19;5107610;28;20036;-64
2021/08/24 00:31:18;;;;;;;11.95;10.13;;;;;;;19.30;100.00;100356.56;5107967;28;20032;-64
2021/08/24 00:33:43;;;;;;;12.02;8.95;;;;;;;19.31;100.00;100372.69;5107936;28;20027;-63
2021/08/24 00:36:16;;;;;;;14.00;8.73;;;;;;;19.32;100.00;100379.81;5107696;28;20019;-64
2021/08/24 00:38:42;;;;;;;13.27;9.30;;;;;;;19.33;100.00;100367.91;5107896;28;20466;-63
2021/08/24 00:41:09;;;;;;;10.27;8.85;;;;;;;19.21;100.00;100350.34;5107535;28;20034;-64
2021/08/24 00:43:39;;;;;;;11.73;8.80;;;;;;;19.27;100.00;100370.53;5107866;28;20055;-64
2021/08/24 00:46:18;;;;;;;10.25;9.00;;;;;;;19.24;100.00;100371.72;5107511;28;20052;-64
2021/08/24 00:48:44;;;;;;;11.52;8.85;;;;;;;19.21;100.00;100369.38;5109220;28;20027;-64
2021/08/24 00:51:13;;;;;;;10.73;8.35;;;;;;;19.15;100.00;100359.25;5111128;28;20034;-64
2021/08/24 00:53:39;;;;;;;13.88;8.68;;;;;;;19.15;100.00;100361.16;5111302;28;20097;-64
2021/08/24 00:56:08;;;;;;;10.93;8.98;;;;;;;19.11;100.00;100357.97;5111112;28;20118;-64
2021/08/24 00:58:33;;;;;;;10.00;8.70;;;;;;;19.14;100.00;100375.75;5111026;28;20077;-63
2021/08/24 01:00:59;;;;;;;12.52;8.93;;;;;;;19.14;100.00;100379.34;5111326;28;20065;-64
2021/08/24 01:03:31;;;;;;;10.35;8.57;;;;;;;19.11;100.00;100374.28;5111272;28;20028;-64
2021/08/24 01:06:05;;;;;;;10.13;9.02;;;;;;;19.13;100.00;100388.53;5128915;27;20087;-64
2021/08/24 01:08:41;;;;;;;15.25;8.40;;;;;;;19.11;100.00;100382.44;5129840;27;20026;-63
2021/08/24 01:11:18;;;;;;;9.30;8.10;;;;;;;19.12;100.00;100392.25;5116682;27;20466;-64
2021/08/24 01:14:16;;;;;;;11.82;8.82;;;;;;;19.12;100.00;100381.38;5115994;27;20488;-64
2021/08/24 01:16:58;;;;;;;10.30;8.07;;;;;;;19.11;100.00;100376.13;5131094;27;20027;-63
2021/08/24 01:19:42;;;;;;;10.93;8.05;;;;;;;19.14;100.00;100375.75;5129282;27;20024;-61
2021/08/24 01:22:32;;;;;;;12.67;9.00;;;;;;;19.13;100.00;100377.66;5110667;28;20045;-62
2021/08/24 01:25:16;;;;;;;11.02;8.68;;;;;;;19.12;100.00;100362.34;5129151;27;20023;-62
2021/08/24 01:28:11;;;;;;;10.82;8.13;;;;;;;19.11;100.00;100360.69;5131151;27;20074;-62
2021/08/24 01:30:56;;;;;;;11.32;8.30;;;;;;;19.10;100.00;100353.56;5131036;27;20490;-63
2021/08/24 01:33:36;;;;;;;10.20;9.00;;;;;;;19.11;100.00;100355.25;5131091;27;20110;-62
2021/08/24 01:36:29;;;;;;;10.93;8.60;;;;;;;19.11;100.00;100348.94;5129509;27;20034;-62
2021/08/24 01:39:13;;;;;;;11.55;9.02;;;;;;;19.08;100.00;100339.31;5131088;27;20482;-63
2021/08/24 01:41:57;;;;;;;11.00;8.45;;;;;;;19.08;100.00;100341.16;5130745;27;20417;-63
2021/08/24 01:44:24;;;;;;;11.80;8.57;;;;;;;19.03;100.00;100324.59;5130747;27;20043;-62
2021/08/24 01:47:12;;;;;;;13.23;9.38;;;;;;;19.01;100.00;100324.78;5131076;27;20606;-62
2021/08/24 01:49:47;;;;;;;10.25;7.88;;;;;;;19.04;100.00;100318.97;5130546;27;20072;-63
2021/08/24 01:52:20;;;;;;;11.23;9.10;;;;;;;19.00;100.00;100325.81;5123245;27;20033;-63
2021/08/24 01:54:51;;;;;;;10.55;8.82;;;;;;;18.92;100.00;100312.31;5110266;28;20265;-62
2021/08/24 01:57:29;;;;;;;11.90;8.73;;;;;;;18.98;100.00;100313.44;5109959;28;20020;-63
2021/08/24 02:00:00;;;;;;;10.65;8.05;;;;;;;18.90;100.00;100317.09;5127678;27;20039;-62
2021/08/24 02:02:33;;;;;;;15.52;8.88;;;;;;;18.88;100.00;100315.59;5130618;27;20041;-63
2021/08/24 02:05:30;;;;;;;10.65;8.45;;;;;;;18.92;100.00;100322.31;5129299;27;20039;-63
2021/08/24 02:08:04;;;;;;;10.77;8.93;;;;;;;18.86;100.00;100315.78;5129910;27;20043;-63
2021/08/24 02:10:30;;;;;;;15.90;9.02;;;;;;;18.82;100.00;100317.19;5128740;27;20118;-62
2021/08/24 02:12:57;;;;;;;10.35;8.57;;;;;;;18.77;100.00;100319.59;5130349;27;20111;-62
2021/08/24 02:15:52;;;;;;;12.77;9.00;;;;;;;18.75;100.00;100315.41;5130366;27;20026;-63
2021/08/24 02:18:23;;;;;;;9.90;8.90;;;;;;;18.71;100.00;100316.81;5126819;27;20042;-63
2021/08/24 02:20:56;;;;;;;12.82;9.05;;;;;;;18.68;100.00;100318.03;5129655;27;20027;-62
2021/08/24 02:23:26;;;;;;;13.90;9.20;;;;;;;18.61;100.00;100310.81;5112918;27;20106;-62
2021/08/24 02:25:58;;;;;;;12.52;9.38;;;;;;;18.62;100.00;100316.06;5109600;28;20439;-63
2021/08/24 02:28:31;;;;;;;12.68;8.73;;;;;;;18.60;100.00;100315.41;5109482;28;20031;-62
2021/08/24 02:31:27;;;;;;;13.65;9.73;;;;;;;18.57;100.00;100309.50;5109522;28;20024;-63
2021/08/24 02:34:14;;;;;;;17.13;10.02;;;;;;;18.55;100.00;100312.41;5108990;28;20093;-62
2021/08/24 02:36:49;;;;;;;17.58;10.18;;;;;;;18.50;100.00;100312.09;5109211;28;20033;-62
2021/08/24 02:39:25;;;;;;;10.93;9.80;;;;;;;18.45;100.00;100302.84;5128161;27;20385;-62
2021/08/24 02:42:04;;;;;;;13.85;9.70;;;;;;;18.48;100.00;100308.75;5129836;27;20489;-61
2021/08/24 02:44:38;;;;;;;12.48;10.02;;;;;;;18.42;100.00;100298.63;5129394;27;20123;-63
2021/08/24 02:47:05;;;;;;;15.40;9.93;;;;;;;18.47;100.00;100309.75;5128288;27;20047;-62
2021/08/24 02:49:32;;;;;;;10.48;9.25;;;;;;;18.44;100.00;100310.13;5129332;27;20382;-62
2021/08/24 02:52:00;;;;;;;12.77;8.63;;;;;;;18.40;100.00;100321.53;5129712;27;20431;-62
2021/08/24 02:54:47;;;;;;;11.02;8.90;;;;;;;18.39;100.00;100328.00;5127041;27;20050;-62
2021/08/24 02:57:13;;;;;;;10.70;8.82;;;;;;;18.37;100.00;100335.50;5108764;28;20490;-62
2021/08/24 02:59:40;;;;;;;11.15;8.95;;;;;;;18.30;100.00;100319.06;5108772;28;20038;-63
2021/08/24 03:02:07;;;;;;;15.73;9.25;;;;;;;18.35;100.00;100332.94;5125706;27;20031;-63
2021/08/24 03:04:33;;;;;;;12.13;8.75;;;;;;;18.30;100.00;100329.94;5126823;27;20398;-63
2021/08/24 03:07:04;;;;;;;12.23;8.13;;;;;;;18.30;100.00;100335.38;5126062;27;20106;-63
2021/08/24 03:09:32;;;;;;;11.45;8.38;;;;;;;18.28;100.00;100342.84;5127819;27;20038;-63
2021/08/24 03:12:27;;;;;;;12.68;8.77;;;;;;;18.27;100.00;100337.59;5128758;27;20023;-63
2021/08/24 03:15:11;;;;;;;10.77;8.57;;;;;;;18.23;100.00;100338.97;5096981;27;20047;-62
2021/08/24 03:17:45;;;;;;;12.02;8.63;;;;;;;18.21;100.00;100344.59;5128790;27;20035;-63
2021/08/24 03:20:11;;;;;;;;;;;;;;;18.21;100.00;100351.91;5129596;27;20053;-62
2021/08/24 03:22:39;;;;;;;10.07;8.02;;;;;;;18.16;100.00;100333.47;5129225;27;20014;-62
2021/08/24 03:25:07;;;;;;;10.00;7.82;;;;;;;18.18;100.00;100344.13;5128890;27;20420;-62
2021/08/24 03:27:38;;;;;;;9.05;8.00;;;;;;;18.17;100.00;100351.44;5128230;27;20110;-63
2021/08/24 03:30:08;;;;;;;9.73;8.13;;;;;;;18.14;100.00;100354.50;5126522;27;20554;-63
2021/08/24 03:32:33;;;;;;;9.65;8.20;;;;;;;18.10;100.00;100355.91;5126654;27;20086;-62
2021/08/24 03:34:59;;;;;;;12.07;8.60;;;;;;;18.07;100.00;100353.56;5128379;27;20113;-63
2021/08/24 03:37:24;;;;;;;10.90;7.85;;;;;;;17.99;100.00;100351.75;5127223;27;20130;-62
2021/08/24 03:39:50;;;;;;;11.25;8.48;;;;;;;17.96;100.00;100348.56;5128021;27;20031;-62
2021/08/24 03:42:16;;;;;;;8.60;7.45;;;;;;;17.98;100.00;100360.91;5128196;27;20164;-62
2021/08/24 03:44:43;;;;;;;11.82;8.68;;;;;;;17.96;100.00;100354.00;5127246;27;20035;-62
2021/08/24 03:47:10;;;;;;;10.35;7.97;;;;;;;17.89;100.00;100356.56;5126532;27;20382;-62
2021/08/24 03:49:36;;;;;;;10.88;7.60;;;;;;;17.90;100.00;100360.97;5128158;27;20087;-63
2021/08/24 03:52:01;;;;;;;12.45;7.93;;;;;;;17.82;100.00;100352.88;5118571;27;20104;-62
2021/08/24 03:54:27;;;;;;;9.63;7.55;;;;;;;17.67;100.00;100335.69;5107069;28;20039;-62
2021/08/24 03:56:52;;;;;;;9.60;7.70;;;;;;;17.82;100.00;100358.31;5106096;28;20035;-62
2021/08/24 03:59:18;;;;;;;9.48;7.18;;;;;;;17.78;100.00;100362.41;5107366;28;20036;-62
2021/08/24 04:01:43;;;;;;;13.55;8.88;;;;;;;17.72;100.00;100368.56;5107943;28;20047;-62
2021/08/24 04:04:08;;;;;;;13.23;7.93;;;;;;;17.72;100.00;100373.97;5107591;28;20031;-62
2021/08/24 04:06:34;;;;;;;9.98;8.05;;;;;;;17.69;100.00;100376.19;5107813;28;20459;-62
2021/08/24 04:08:59;;;;;;;13.13;8.20;;;;;;;17.65;100.00;100366.72;5107750;28;20467;-62
2021/08/24 04:11:25;;;;;;;8.68;7.18;;;;;;;17.67;100.00;100375.56;5107612;28;20020;-62
2021/08/24 04:13:50;;;;;;;10.70;7.25;;;;;;;17.63;100.00;100379.63;5107701;28;20024;-62
2021/08/24 04:16:16;;;;;;;10.48;8.13;;;;;;;17.61;100.00;100374.38;5107949;28;20072;-62
2021/08/24 04:18:42;;;;;;;9.30;7.60;;;;;;;17.62;100.00;100380.66;5107687;28;20101;-62
2021/08/24 04:21:13;;;;;;;11.43;7.95;;;;;;;17.58;100.00;100391.00;5107788;28;20024;-63
2021/08/24 04:23:39;;;;;;;13.35;8.43;;;;;;;17.58;100.00;100388.28;5109205;28;20401;-62
2021/08/24 04:26:06;;;;;;;10.55;7.75;;;;;;;17.55;100.00;100387.81;5111685;28;20118;-63
2021/08/24 04:28:31;;;;;;;10.65;8.32;;;;;;;17.50;100.00;100380.22;5112984;27;20042;-63
2021/08/24 04:30:57;;;;;;;10.50;7.40;;;;;;;17.51;100.00;100378.34;5112765;28;20023;-63
2021/08/24 04:33:23;;;;;;;10.30;7.28;;;;;;;17.58;100.00;100388.28;5111954;28;20030;-62
2021/08/24 04:35:53;;;;;;;9.48;7.53;;;;;;;17.55;100.00;100383.25;5111605;28;20035;-63
2021/08/24 04:38:19;;;;;;;10.35;8.18;;;;;;;17.64;100.00;100393.00;5111688;28;20475;-61
2021/08/24 04:40:45;;;;;;;12.27;7.80;;;;;;;17.69;100.00;100393.31;5111543;28;20519;-61
2021/08/24 04:43:11;;;;;;;11.15;7.63;;;;;;;17.73;100.00;100400.06;5111835;28;20031;-62
2021/08/24 04:45:37;;;;;;;9.95;7.50;;;;;;;17.71;100.00;100385.00;5111382;28;20407;-61
2021/08/24 04:48:03;;;;;;;10.95;7.57;;;;;;;17.82;100.00;100398.16;5111411;28;20035;-61
2021/08/24 04:50:28;;;;;;;10.20;7.70;;;;;;;17.90;100.00;100398.94;5111697;28;20487;-61
2021/08/24 04:52:54;;;;;;;11.25;7.65;;;;;;;17.99;100.00;100403.31;5111500;28;20066;-61
2021/08/24 04:55:20;;;;;;;9.73;7.00;;;;;;;18.08;100.00;100404.09;5112196;28;20047;-62
2021/08/24 04:57:45;;;;;;;10.77;7.55;;;;;;;18.13;100.00;100399.81;5109976;28;20023;-62
2021/08/24 05:00:11;;;;;;;9.70;7.18;;;;;;;18.16;100.00;100386.91;5124900;27;20030;-62
2021/08/24 05:02:37;;;;;;;10.48;6.95;;;;;;;18.34;100.00;100393.69;5126354;27;20042;-60
2021/08/24 05:05:03;;;;;;;10.98;7.68;;;;;;;18.38;100.00;100388.78;5110893;28;20106;-61
2021/08/24 05:07:29;;;;;;;9.25;7.30;;;;;;;18.50;99.88;100393.59;5110960;28;20744;-61
2021/08/24 05:09:55;;;;;;;9.88;6.93;;;;;;;18.64;99.65;100394.66;5110747;28;20032;-62
2021/08/24 05:12:20;;;;;;;10.68;6.88;;;;;;;18.67;98.48;100386.16;5115951;27;20509;-61
2021/08/24 05:14:46;;;;;;;13.25;7.60;;;;;;;18.84;97.51;100401.25;5129700;27;20120;-61
2021/08/24 05:17:11;;;;;;;11.77;7.65;;;;;;;18.92;97.19;100391.13;5115131;27;20027;-61
2021/08/24 05:19:36;;;;;;;10.52;7.32;;;;;;;18.94;96.76;100383.66;5110139;28;20031;-61
2021/08/24 05:22:02;;;;;;;8.27;6.32;;;;;;;19.13;95.88;100401.28;5109886;28;20076;-61
2021/08/24 05:24:28;;;;;;;9.23;7.13;;;;;;;19.23;94.97;100394.53;5110101;28;20482;-61
2021/08/24 05:26:53;;;;;;;7.68;6.70;;;;;;;19.35;94.22;100403.91;5109568;28;20105;-61
2021/08/24 05:29:19;;;;;;;7.80;6.70;;;;;;;19.46;93.50;100389.00;5110350;28;20023;-62
2021/08/24 05:31:45;;;;;;;7.25;6.10;;;;;;;19.59;92.47;100400.91;5125894;27;20023;-62
2021/08/24 05:34:11;;;;;;;6.78;6.07;;;;;;;19.70;91.56;100392.22;5129536;27;20424;-62
2021/08/24 05:36:37;;;;;;;8.88;6.53;;;;;;;19.78;90.62;100394.00;5127504;27;20039;-62
2021/08/24 05:39:03;;;;;;;11.80;6.28;;;;;;;19.87;90.52;100396.41;5126064;27;20019;-63
2021/08/24 05:41:29;;;;;;;9.23;6.05;;;;;;;19.98;90.10;100397.78;5130232;27;20502;-63
2021/08/24 05:43:54;;;;;;;7.32;5.32;;;;;;;20.03;89.61;100398.88;5121704;27;20127;-62
2021/08/24 05:46:20;;;;;;;8.02;5.88;;;;;;;20.17;88.67;100408.06;5127735;27;20027;-63
2021/08/24 05:48:46;;;;;;;8.68;5.65;;;;;;;20.27;87.49;100415.91;5130332;27;20121;-63
2021/08/24 05:51:16;;;;;;;8.57;5.45;;;;;;;20.32;87.19;100413.47;5129545;27;20029;-63
2021/08/24 05:53:42;;;;;;;7.25;5.57;;;;;;;20.36;86.52;100410.16;5130844;27;20050;-64
2021/08/24 05:56:15;;;;;;;8.48;5.60;;;;;;;20.39;86.21;100404.31;5130646;27;20470;-63
2021/08/24 05:58:41;;;;;;;7.32;5.40;;;;;;;20.43;85.70;100410.19;5130867;27;20102;-63
2021/08/24 06:01:07;;;;;;;7.20;5.30;;;;;;;20.49;85.64;100401.25;5130614;27;20110;-63
2021/08/24 06:03:33;;;;;;;7.93;5.35;;;;;;;20.60;85.77;100407.00;5131167;27;20023;-62
2021/08/24 06:05:59;;;;;;;8.32;5.78;;;;;;;20.70;85.15;100401.22;5130962;27;20437;-62
2021/08/24 06:08:26;;;;;;;5.80;5.07;;;;;;;20.82;84.45;100399.63;5130177;27;20049;-63
2021/08/24 06:10:52;;;;;;;10.75;5.38;;;;;;;20.95;83.08;100399.75;5130515;27;20484;-63
2021/08/24 06:13:17;;;;;;;7.75;5.18;;;;;;;21.05;82.36;100398.38;5124785;27;20062;-62
2021/08/24 06:15:43;;;;;;;6.00;4.97;;;;;;;21.11;82.02;100394.00;5129098;27;20470;-63
2021/08/24 06:18:08;;;;;;;6.05;5.00;;;;;;;21.15;81.46;100387.94;5128378;27;20015;-63
2021/08/24 06:20:34;;;;;;;7.05;4.65;;;;;;;21.24;81.17;100394.06;5130023;27;20007;-63
2021/08/24 06:22:59;;;;;;;6.22;5.40;;;;;;;21.33;80.48;100388.25;5130284;27;20045;-62
2021/08/24 06:25:25;;;;;;;6.47;4.88;;;;;;;21.43;81.15;100390.59;5129941;27;20027;-63
2021/08/24 06:27:50;;;;;;;8.35;4.07;;;;;;;21.55;80.36;100398.03;5130208;27;20471;-62
2021/08/24 06:30:17;;;;;;;7.50;4.38;;;;;;;21.67;78.95;100393.66;5129767;27;20409;-63
2021/08/24 06:32:48;;;;;;;12.43;4.80;;;;;;;21.81;78.59;100391.84;5129679;27;20106;-62
2021/08/24 06:35:15;;;;;;;6.30;4.70;;;;;;;21.95;78.06;100399.03;5127134;27;20034;-62
2021/08/24 06:37:40;;;;;;;6.65;4.90;;;;;;;22.01;75.55;100387.28;5129784;27;20385;-63
2021/08/24 06:40:07;;;;;;;6.18;4.97;;;;;;;22.16;75.11;100396.16;5129651;27;20053;-63
2021/08/24 06:42:47;;;;;;;6.32;4.80;;;;;;;22.28;74.60;100409.00;5129852;27;20102;-63
2021/08/24 06:45:18;;;;;;;9.85;5.00;;;;;;;22.42;71.73;100401.66;5128990;27;20039;-63
2021/08/24 06:47:43;;;;;;;7.45;4.63;;;;;;;22.51;72.47;100405.06;5129314;27;20063;-63
2021/08/24 06:50:09;;;;;;;10.18;4.30;;;;;;;22.59;72.35;100408.41;5129128;27;20062;-63
2021/08/24 06:52:35;;;;;;;5.30;4.28;;;;;;;22.67;72.13;100410.13;5128068;27;20049;-63
2021/08/24 06:55:02;;;;;;;4.38;3.42;;;;;;;22.73;71.19;100417.47;5121884;27;20051;-63
2021/08/24 06:57:28;;;;;;;8.63;4.15;;;;;;;22.83;69.80;100404.22;5108807;28;20089;-63
2021/08/24 06:59:53;;;;;;;5.55;3.83;;;;;;;22.85;70.13;100402.09;5108901;28;20483;-63
2021/08/24 07:02:19;;;;;;;9.60;3.70;;;;;;;22.96;69.82;100404.22;5108462;28;20020;-63
2021/08/24 07:04:48;;;;;;;9.30;4.80;;;;;;;23.00;69.96;100406.31;5126798;27;20119;-63
2021/08/24 07:07:14;;;;;;;5.82;4.10;;;;;;;23.12;69.41;100403.75;5127805;27;20023;-63
2021/08/24 07:09:39;;;;;;;10.68;4.60;;;;;;;23.22;69.32;100405.00;5127695;27;20027;-63
2021/08/24 07:12:05;;;;;;;4.43;3.80;;;;;;;23.33;69.23;100403.53;5129331;27;20477;-63
2021/08/24 07:14:31;;;;;;;4.65;4.10;;;;;;;23.54;67.90;100401.34;5129400;27;20022;-63
2021/08/24 07:16:56;;;;;;;4.30;3.85;;;;;;;23.62;67.15;100401.13;5129042;27;20427;-63
2021/08/24 07:19:22;;;;;;;3.88;3.50;;;;;;;23.71;66.87;100399.81;5127289;27;20023;-62
2021/08/24 07:21:47;;;;;;;4.90;4.07;;;;;;;23.73;66.46;100386.72;5128994;27;20113;-63
2021/08/24 07:24:13;;;;;;;5.60;4.00;;;;;;;23.91;66.76;100400.56;5128852;27;20023;-63
2021/08/24 07:26:38;;;;;;;4.43;3.67;;;;;;;24.02;66.01;100410.03;5128796;27;20031;-63
2021/08/24 07:29:04;;;;;;;4.80;3.75;;;;;;;24.14;64.49;100400.03;5129317;27;20023;-62
2021/08/24 07:31:29;;;;;;;4.28;3.80;;;;;;;24.27;62.97;100408.16;5128682;27;20034;-63
2021/08/24 07:33:55;;;;;;;4.15;3.50;;;;;;;24.29;63.77;100406.91;5128428;27;20076;-63
2021/08/24 07:36:20;;;;;;;5.85;3.60;;;;;;;24.42;62.34;100401.34;5128725;27;20478;-63
2021/08/24 07:38:46;;;;;;;4.47;3.20;;;;;;;24.43;62.63;100405.75;5110791;27;20031;-63
2021/08/24 07:41:11;;;;;;;4.75;3.33;;;;;;;24.48;63.24;100406.97;5108222;28;20444;-63
2021/08/24 07:46:59;;;;;;;5.45;3.40;;;;;;;24.72;62.14;100406.16;5122266;22;20046;-63
2021/08/24 07:49:24;;;;;;;6.85;3.75;;;;;;;24.78;61.89;100399.78;5107888;28;20040;-63
2021/08/24 07:51:49;;;;;;;4.95;3.15;;;;;;;24.88;61.56;100403.72;5108905;28;20059;-63
2021/08/24 07:54:15;;;;;;;4.15;3.60;;;;;;;24.98;61.24;100400.47;5108865;28;20051;-63
2021/08/24 07:56:41;;;;;;;10.27;3.15;;;;;;;25.11;60.73;100403.91;5109135;28;20479;-63
2021/08/24 07:59:06;;;;;;;4.80;3.22;;;;;;;25.13;60.84;100384.47;5094461;28;20020;-63
2021/08/24 08:01:32;;;;;;;6.47;3.30;;;;;;;25.33;60.23;100401.59;5113192;28;20471;-63
2021/08/24 08:03:58;;;;;;;4.35;3.10;;;;;;;25.49;59.10;100407.34;5113079;28;20039;-63
2021/08/24 08:06:23;;;;;;;4.30;2.80;;;;;;;25.60;58.17;100398.31;5112933;28;20028;-63
2021/08/24 08:08:49;;;;;;;4.45;2.85;;;;;;;25.83;56.45;100401.19;5094555;28;20027;-63
2021/08/24 08:11:14;;;;;;;4.20;2.47;;;;;;;25.95;56.64;100406.75;5112656;28;20062;-64
2021/08/24 08:13:40;;;;;;;4.45;2.70;;;;;;;26.08;56.88;100406.59;5112918;28;20027;-62
2021/08/24 08:16:06;;;;;;;4.32;3.17;;;;;;;26.30;56.04;100405.00;5112846;28;20027;-62
2021/08/24 08:18:32;;;;;;;4.20;2.30;;;;;;;26.57;55.38;100409.03;5094716;28;20050;-63
2021/08/24 08:20:58;;;;;;;8.57;2.40;;;;;;;26.79;54.47;100388.16;5094316;28;20027;-63
2021/08/24 08:23:24;;;;;;;4.85;2.50;;;;;;;27.24;51.97;100399.47;5112648;28;20082;-64
2021/08/24 08:25:49;;;;;;;3.10;2.10;;;;;;;27.56;52.03;100395.19;5112697;28;20055;-64
2021/08/24 08:28:15;;;;;;;3.90;2.10;;;;;;;27.77;51.00;100398.16;5094000;28;20121;-64
2021/08/24 08:30:45;;;;;;;5.50;2.25;;;;;;;28.13;49.82;100396.97;5112229;28;20123;-64
2021/08/24 08:33:11;;;;;;;3.97;2.17;;;;;;;28.19;49.57;100396.81;5112374;28;20026;-64
2021/08/24 08:35:36;;;;;;;4.95;2.13;;;;;;;28.25;49.52;100401.34;5112721;28;20378;-64
2021/08/24 08:38:02;;;;;;;4.53;2.20;;;;;;;28.21;49.18;100400.16;5112552;28;20031;-64
2021/08/24 08:40:35;;;;;;;2.00;1.80;;;;;;;28.31;48.77;100405.88;5112245;28;20023;-64
2021/08/24 08:43:20;;;;;;;3.22;2.13;;;;;;;28.38;48.74;100406.53;5093884;28;20045;-64
2021/08/24 08:45:50;;;;;;;2.35;1.88;;;;;;;28.37;48.65;100409.53;5112021;28;20083;-64
2021/08/24 08:48:19;;;;;;;2.53;1.98;;;;;;;28.32;49.22;100415.00;5112245;28;20573;-64
2021/08/24 08:50:55;;;;;;;4.45;2.08;;;;;;;28.37;48.63;100407.63;5111866;28;20032;-64
2021/08/24 08:53:41;;;;;;;2.40;2.20;;;;;;;28.30;48.73;100403.34;5112016;28;20049;-64
2021/08/24 08:56:09;;;;;;;2.92;2.63;;;;;;;28.31;48.96;100403.09;5093917;28;20019;-64
2021/08/24 08:58:34;;;;;;;3.50;2.30;;;;;;;28.28;49.19;100408.31;5112314;28;20554;-64
2021/08/24 09:01:23;;;;;;;4.63;2.33;;;;;;;28.28;48.82;100409.13;5111742;28;20119;-64
2021/08/24 09:03:58;;;;;;;3.00;2.50;;;;;;;28.21;48.49;100396.59;5111908;28;20498;-64
2021/08/24 09:06:27;;;;;;;3.67;2.47;;;;;;;28.15;48.73;100403.09;5111741;28;20026;-64
2021/08/24 09:08:55;;;;;;;2.08;1.83;;;;;;;28.18;48.52;100408.94;5110911;28;20039;-65
2021/08/24 09:11:27;;;;;;;1.98;1.80;;;;;;;28.18;48.41;100408.94;5111656;28;20390;-64
2021/08/24 09:13:59;;;;;;;2.10;1.90;;;;;;;28.14;47.92;100413.28;5111682;28;20023;-64
2021/08/24 09:16:31;;;;;;;3.45;2.22;;;;;;;28.19;47.91;100407.00;5111391;28;20047;-65
2021/08/24 09:19:09;;;;;;;3.47;1.98;;;;;;;28.21;47.53;100413.13;5111620;28;20125;-65
2021/08/24 09:21:41;;;;;;;3.88;2.53;;;;;;;28.25;47.17;100420.66;5112067;28;20031;-65
2021/08/24 09:24:11;;;;;;;2.45;2.17;;;;;;;28.18;46.89;100405.34;5111884;28;20542;-62
2021/08/24 09:26:52;;;;;;;3.55;2.20;;;;;;;28.22;47.36;100417.56;5111740;28;20019;-64
2021/08/24 09:29:21;;;;;;;3.42;2.05;;;;;;;28.11;47.64;100415.66;5111341;28;20027;-64
2021/08/24 09:31:48;;;;;;;4.30;2.45;;;;;;;27.96;48.11;100416.19;5111261;28;20492;-65
2021/08/24 09:34:17;;;;;;;2.67;2.35;;;;;;;27.98;48.90;100413.19;5111136;28;20110;-64
2021/08/24 09:36:44;;;;;;;7.07;2.67;;;;;;;27.88;49.29;100408.34;5093010;28;20485;-64
2021/08/24 09:39:09;;;;;;;10.50;2.97;;;;;;;27.85;49.32;100406.06;5111486;28;20034;-64
2021/08/24 09:41:38;;;;;;;8.95;3.22;;;;;;;27.77;49.54;100389.88;5111168;28;20027;-64
2021/08/24 09:44:23;;;;;;;5.45;2.35;;;;;;;27.89;49.17;100411.94;5111254;28;20068;-64
2021/08/24 09:46:52;;;;;;;4.10;2.33;;;;;;;27.92;48.75;100412.28;5110988;28;20048;-64
2021/08/24 09:49:20;;;;;;;3.20;2.72;;;;;;;27.90;48.70;100408.09;5092405;28;20068;-64
2021/08/24 09:51:53;;;;;;;15.77;3.08;;;;;;;27.88;47.35;100405.56;5110985;28;20402;-64
2021/08/24 09:54:50;;;;;;;4.60;2.42;;;;;;;27.78;47.18;100396.22;5092618;28;20022;-64
2021/08/24 09:57:31;;;;;;;4.07;2.17;;;;;;;27.73;47.59;100394.19;5110912;28;20036;-64
2021/08/24 10:00:04;;;;;;;2.78;1.92;;;;;;;27.70;46.57;100391.91;5110849;28;20024;-64
2021/08/24 10:02:40;;;;;;;2.70;1.45;;;;;;;27.68;46.78;100388.59;5110649;28;20053;-65
2021/08/24 10:05:13;;;;;;;5.88;2.30;;;;;;;27.73;47.39;100396.13;5110613;28;20028;-65
2021/08/24 10:07:45;;;;;;;6.38;2.35;;;;;;;27.71;47.43;100387.25;5110975;28;20027;-65
2021/08/24 10:10:22;;;;;;;4.22;1.88;;;;;;;27.76;47.33;100393.72;5110607;28;20232;-65
2021/08/24 10:12:51;;;;;;;4.18;1.90;;;;;;;27.81;46.59;100402.09;5110606;28;20042;-65
2021/08/24 10:15:32;;;;;;;4.57;1.90;;;;;;;27.82;45.95;100392.72;5110896;28;20077;-65
2021/08/24 10:18:13;;;;;;;2.25;1.70;;;;;;;27.86;45.60;100390.38;5092093;28;20105;-65
2021/08/24 10:20:56;;;;;;;4.03;1.90;;;;;;;27.84;45.19;100384.22;5110286;28;20080;-64
2021/08/24 10:23:27;;;;;;;1.85;1.60;;;;;;;27.87;45.46;100392.88;5110327;28;20034;-64
2021/08/24 10:25:57;;;;;;;2.40;1.58;;;;;;;27.84;45.82;100386.97;5110542;28;20441;-65
2021/08/24 10:28:27;;;;;;;1.85;1.48;;;;;;;27.79;46.25;100376.69;5110436;28;20020;-65
2021/08/24 10:30:59;;;;;;;2.42;1.63;;;;;;;27.72;45.10;100367.72;5110387;28;20035;-64
2021/08/24 10:33:32;;;;;;;1.80;1.70;;;;;;;27.71;44.61;100366.06;5110192;28;20023;-64
2021/08/24 10:36:36;;;;;;;2.35;1.60;;;;;;;27.74;44.19;100375.75;5110261;28;20372;-64
2021/08/24 10:39:02;;;;;;;3.67;1.80;;;;;;;27.68;44.93;100380.31;5105983;28;20074;-64
2021/08/24 10:41:32;;;;;;;3.17;1.77;;;;;;;27.64;45.75;100367.28;5109685;28;20062;-64
2021/08/24 10:44:02;;;;;;;1.73;1.63;;;;;;;27.64;45.92;100373.63;5109919;28;20027;-65
2021/08/24 10:46:28;;;;;;;2.90;2.00;;;;;;;27.62;45.88;100374.94;5109781;28;20402;-64
2021/08/24 10:48:55;;;;;;;2.25;1.83;;;;;;;27.68;45.55;100376.72;5109732;28;20032;-64
2021/08/24 10:51:21;;;;;;;3.53;1.73;;;;;;;27.62;45.76;100372.19;5091755;28;20450;-64
2021/08/24 10:54:04;;;;;;;2.97;2.15;;;;;;;27.57;45.73;100374.84;5091369;28;20118;-64
2021/08/24 10:56:38;;;;;;;2.08;1.90;;;;;;;27.50;44.96;100377.72;5091316;28;20072;-64
2021/08/24 10:59:19;;;;;;;2.38;1.80;;;;;;;27.41;45.43;100365.44;5109725;28;20471;-65
2021/08/24 11:02:01;;;;;;;1.92;1.65;;;;;;;27.27;45.73;100364.00;5109669;28;20652;-64
2021/08/24 11:04:58;;;;;;;7.80;2.55;;;;;;;27.25;45.93;100360.66;5109479;28;20374;-65
2021/08/24 11:07:27;;;;;;;1.75;1.65;;;;;;;27.21;45.27;100364.91;5038050;28;20584;-64
2021/08/24 11:10:18;;;;;;;3.17;1.77;;;;;;;27.15;46.06;100371.38;5109547;28;20031;-64
2021/08/24 11:13:08;;;;;;;6.05;2.28;;;;;;;27.09;46.76;100382.53;5109647;28;20312;-65
2021/08/24 11:15:52;;;;;;;2.45;2.00;;;;;;;27.00;46.15;100373.81;5109364;28;20030;-65
2021/08/24 11:18:43;;;;;;;5.38;2.25;;;;;;;26.88;46.00;100378.47;5109337;28;20030;-64
2021/08/24 11:21:14;;;;;;;3.10;2.20;;;;;;;26.80;46.61;100378.84;5109350;28;20415;-64
2021/08/24 11:23:42;;;;;;;2.88;2.00;;;;;;;26.77;46.40;100373.81;5109365;28;20112;-65
2021/08/24 11:26:20;;;;;;;2.67;1.75;;;;;;;26.75;46.96;100375.09;5109255;28;20446;-64
2021/08/24 11:28:56;;;;;;;3.67;1.90;;;;;;;26.65;47.27;100358.34;5109234;28;20051;-64
2021/08/24 11:31:53;;;;;;;7.45;2.25;;;;;;;26.67;47.72;100365.31;5108781;28;20031;-65
2021/08/24 11:34:24;;;;;;;2.60;2.10;;;;;;;26.69;47.91;100367.81;5108253;28;20035;-65
2021/08/24 11:37:11;;;;;;;2.40;1.80;;;;;;;26.66;47.11;100365.53;5108994;28;20030;-65
2021/08/24 11:40:07;;;;;;;2.28;1.73;;;;;;;26.63;47.30;100364.06;5094316;28;20475;-64